Flight Track Log - Related Links

Times and Time Zones

All times are in EST time to prevent confusion due to time zone crossing. See the N10WN flight status page for this flight to view local times or setup timezone preferences in your user account.

Time Position Orientation Groundspeed Altitude Reporting Facility
EST Latitude Longitude Course Direction KTS MPH feet Rate Location/Type
Sat 06:06:09 PM 30.7628 -95.0569 325° Northwest 125 144 2,900  Level Fort Worth Center
Sat 06:07:11 PM 30.7908 -95.0797 325° Northwest 123 142 3,700 780 Climbing Fort Worth Center
Sat 06:08:12 PM 30.8189 -95.1006 327° Northwest 122 140 4,500 726 Climbing Fort Worth Center
Sat 06:09:15 PM 30.8450 -95.1219 325° Northwest 118 136 5,200 624 Climbing Houston Center
Sat 06:10:17 PM 30.8703 -95.1428 325° Northwest 113 130 5,800 677 Climbing Houston Center
Sat 06:11:19 PM 30.9008 -95.1669 326° Northwest 112 129 6,600 634 Climbing Houston Center
Sat 06:12:20 PM 30.9261 -95.1869 326° Northwest 110 127 7,100 537 Climbing Houston Center
Sat 06:13:22 PM 30.9525 -95.2086 325° Northwest 114 131 7,700 488 Climbing Houston Center
Sat 06:14:23 PM 30.9769 -95.2275 326° Northwest 109 125 8,100 195 Climbing Houston Center
Sat 06:15:25 PM 31.0094 -95.2531 326° Northwest 136 157 8,100  Level Houston Center
Sat 06:16:26 PM 31.0489 -95.2817 328° Northwest 159 183 8,100 -49 Level Houston Center
Sat 06:17:28 PM 31.0875 -95.3128 325° Northwest 167 192 8,000 -48 Descending Houston Center
Sat 06:18:30 PM 31.1250 -95.3431 325° Northwest 165 190 8,000 49 Level Houston Center
Sat 06:19:31 PM 31.1625 -95.3728 326° Northwest 163 188 8,100 49 Climbing Houston Center
Sat 06:20:33 PM 31.2061 -95.4083 325° Northwest 159 183 8,100 -49 Level Houston Center
Sat 06:21:34 PM 31.2417 -95.4372 325° Northwest 156 180 8,000  Descending Houston Center
Sat 06:22:36 PM 31.2761 -95.4658 325° Northwest 152 175 8,100  Climbing Houston Center
Sat 06:23:37 PM 31.3114 -95.4939 326° Northwest 153 176 8,000 -49 Descending Houston Center
Sat 06:24:39 PM 31.3469 -95.5217 326° Northwest 152 175 8,000 49 Level Houston Center
Sat 06:25:40 PM 31.3811 -95.5514 323° Northwest 153 176 8,100 49 Climbing Houston Center
Sat 06:26:42 PM 31.4164 -95.5792 326° Northwest 152 175 8,100 -48 Level Houston Center
Sat 06:27:44 PM 31.4522 -95.6083 325° Northwest 156 180 8,000  Descending Houston Center
Sat 06:28:45 PM 31.4881 -95.6361 327° Northwest 154 177 8,100  Climbing Houston Center
Sat 06:29:47 PM 31.5283 -95.6706 324° Northwest 150 173 8,000  Descending Houston Center
Sat 06:30:48 PM 31.5628 -95.6994 324° Northwest 151 174 8,100 49 Climbing Houston Center
Sat 06:31:50 PM 31.5969 -95.7278 325° Northwest 151 174 8,100 -48 Level Houston Center
Sat 06:32:52 PM 31.6325 -95.7569 325° Northwest 154 177 8,000 -49 Descending Houston Center
Sat 06:33:52 PM 31.6683 -95.7853 326° Northwest 151 174 8,000  Level Fort Worth Center
Sat 06:34:54 PM 31.7042 -95.8144 325° Northwest 156 180 8,000  Level Fort Worth Center
Sat 06:35:55 PM 31.7369 -95.8431 323° Northwest 148 170 8,000 -49 Level Fort Worth Center
Sat 06:36:57 PM 31.7719 -95.8708 326° Northwest 151 174 7,900  Descending Fort Worth Center
Sat 06:37:59 PM 31.8053 -95.9003 323° Northwest 150 173 8,000 49 Climbing Fort Worth Center
Sat 06:39:00 PM 31.8461 -95.9325 326° Northwest 147 169 8,000  Level Fort Worth Center
Sat 06:40:02 PM 31.8767 -95.9561 327° Northwest 150 173 8,000  Level Fort Worth Center
Sat 06:41:03 PM 31.9167 -95.9908 324° Northwest 151 174 8,000  Level Fort Worth Center
Sat 06:42:05 PM 31.9497 -96.0197 323° Northwest 146 168 8,000  Level Fort Worth Center
Sat 06:43:06 PM 31.9814 -96.0453 326° Northwest 149 171 8,000  Level Fort Worth Center
Sat 06:44:08 PM 32.0169 -96.0731 326° Northwest 152 175 8,000  Level Fort Worth Center
Sat 06:45:09 PM 32.0514 -96.1022 324° Northwest 153 176 8,000  Level Fort Worth Center
Sat 06:46:11 PM 32.0914 -96.1364 324° Northwest 148 170 8,000  Level Fort Worth Center
Sat 06:47:12 PM 32.1256 -96.1653 324° Northwest 150 173 8,000  Level Fort Worth Center
Sat 06:48:14 PM 32.1608 -96.1936 326° Northwest 152 175 8,000  Level Fort Worth Center
Sat 06:49:16 PM 32.1961 -96.2219 326° Northwest 152 175 8,000 -49 Level Fort Worth Center
Sat 06:50:17 PM 32.2375 -96.2481 332° Northwest 155 178 7,900 -146 Descending Fort Worth Center
Sat 06:51:19 PM 32.2778 -96.2708 334° Northwest 160 184 7,700 -439 Descending Fort Worth Center
Sat 06:52:20 PM 32.3253 -96.2992 333° Northwest 177 204 7,000 -634 Descending Fort Worth Center
Sat 06:53:22 PM 32.3719 -96.3258 334° Northwest 185 213 6,400 -488 Descending Fort Worth Center
Sat 06:54:23 PM 32.4175 -96.3525 334° Northwest 184 212 6,000 -197 Descending Fort Worth Center
Sat 06:55:24 PM 32.4622 -96.3803 332° Northwest 168 193 6,000 -244 Level Fort Worth Center
Sat 06:56:26 PM 32.5058 -96.4067 333° Northwest 176 203 5,500 -390 Descending Fort Worth Center
Sat 06:57:27 PM 32.5508 -96.4350 332° Northwest 181 208 5,200 -195 Descending Fort Worth Center
Sat 06:58:29 PM 32.5975 -96.4622 334° Northwest 174 200 5,100 -244 Descending Fort Worth Center
Sat 06:59:30 PM 32.6453 -96.4772 345° North 184 212 4,700 -439 Descending Fort Worth Center
Sat 07:00:32 PM 32.7017 -96.4828 355° North 200 230 4,200 -488 Descending Fort Worth Center
Sat 07:01:33 PM 32.7597 -96.4972 348° North 198 228 3,700 -488 Descending Fort Worth Center
Sat 07:02:35 PM 32.8136 -96.5161 344° North 201 231 3,200 -341 Descending Fort Worth Center
Sat 07:03:36 PM 32.8658 -96.5350 343° North 197 227 3,000 -98 Descending Fort Worth Center
Sat 07:04:37 PM 32.9042 -96.5678 324° Northwest 168 193 3,000  Level Fort Worth Center
Sat 07:05:39 PM 32.9414 -96.6061 319° Northwest 164 189 3,000  Level Fort Worth Center
Sat 07:06:40 PM 32.9756 -96.6414 319° Northwest 161 185 3,000 -43 Level Fort Worth Center
Sat 07:08:00 PM 33.0167 -96.6833 319° Northwest 164 189 2,900 -129 Descending Dallas / Fort Worth TRACON
Sat 07:09:00 PM 33.0333 -96.7333 292° West 117 135 2,700 -474 Descending Dallas / Fort Worth TRACON
Sat 07:09:54 PM 33.0167 -96.7667 239° Southwest 134 154 2,000 -500 Descending Dallas / Fort Worth TRACON
Sat 07:11:00 PM 33.0167 -96.8000 270° West 123 142 1,700 -227 Descending Dallas / Fort Worth TRACON
Sat 07:12:06 PM 33.0167 -96.8500 270° West 105 121 1,500 -211 Descending Dallas / Fort Worth TRACON
Sat 07:12:54 PM 33.0167 -96.8500 180° South 67 77 1,300 -316 Descending Dallas / Fort Worth TRACON
Sat 07:14:00 PM 32.9833 -96.8500 180° South 68 78 900 -364 Descending Dallas / Fort Worth TRACON

Login

Don't have an account? Register now (free) for customized features, flight alerts, and more!